Time;durP1;ratioP1;P1;durP2;ratioP2;P2;SDS_P1;SDS_P2;PMS_P1;PMS_P2;Temp;Humidity;BMP_temperature;BMP_pressure;BME280_temperature;BME280_humidity;BME280_pressure;Samples;Min_cycle;Max_cycle;Signal;HPM_P1;HPM_P2
2024/02/24 00:01:52;;;;;;;;;;;358.70;2278.40;;;;;;5081577;28;19915;-77
2024/02/24 00:04:17;;;;;;;;;;;358.80;2278.40;;;;;;5105818;28;20069;-77
2024/02/24 00:06:43;;;;;;;;;;;358.80;2278.40;;;;;;5083585;28;19918;-78
2024/02/24 00:09:09;;;;;;;;;;;358.80;2278.40;;;;;;5074046;28;19919;-78
2024/02/24 00:11:35;;;;;;;;;;;358.80;2278.40;;;;;;5083363;28;20279;-76
2024/02/24 00:14:01;;;;;;;;;;;358.90;2278.40;;;;;;5075119;28;19999;-76
2024/02/24 00:16:26;;;;;;;;;;;358.90;2278.40;;;;;;5088946;28;20374;-77
2024/02/24 00:18:56;;;;;;;;;;;358.90;2278.40;;;;;;5083747;28;19916;-76
2024/02/24 00:21:22;;;;;;;;;;;358.90;2278.40;;;;;;5084076;28;19908;-77
2024/02/24 00:23:48;;;;;;;;;;;358.90;2278.40;;;;;;5065587;28;19923;-76
2024/02/24 00:26:13;;;;;;;;;;;358.90;2252.80;;;;;;5071105;28;19913;-76
2024/02/24 00:28:39;;;;;;;;;;;358.90;2252.80;;;;;;5080474;28;20359;-76
2024/02/24 00:31:04;;;;;;;;;;;358.90;2252.80;;;;;;5083121;28;19939;-76
2024/02/24 00:33:30;;;;;;;;;;;358.90;2278.40;;;;;;5072592;28;20347;-82
2024/02/24 00:35:56;;;;;;;;;;;358.90;2278.40;;;;;;5092636;28;20003;-77
2024/02/24 00:38:21;;;;;;;;;;;358.90;2278.40;;;;;;5084089;28;19928;-76
2024/02/24 00:40:47;;;;;;;;;;;358.90;2252.80;;;;;;5082247;28;19935;-76
2024/02/24 00:43:12;;;;;;;;;;;358.90;2278.40;;;;;;5084024;28;20005;-78
2024/02/24 00:45:38;;;;;;;;;;;358.90;2278.40;;;;;;5066546;28;19917;-76
2024/02/24 00:48:04;;;;;;;;;;;358.90;2278.40;;;;;;5092269;28;19915;-76
2024/02/24 00:50:30;;;;;;;;;;;358.90;2278.40;;;;;;5070745;28;19975;-78
2024/02/24 00:52:56;;;;;;;;;;;359.00;2304.00;;;;;;5097042;28;20006;-77
2024/02/24 00:55:22;;;;;;;;;;;359.00;2278.40;;;;;;5075253;28;19919;-76
2024/02/24 00:57:47;;;;;;;;;;;359.00;2278.40;;;;;;5070004;28;19927;-75
2024/02/24 01:00:13;;;;;;;;;;;359.00;2278.40;;;;;;5087844;28;19915;-76
2024/02/24 01:02:39;;;;;;;;;;;359.00;2278.40;;;;;;5082343;28;19912;-76
2024/02/24 01:05:05;;;;;;;;;;;359.00;2278.40;;;;;;5101932;28;19957;-76
2024/02/24 01:07:30;;;;;;;;;;;359.10;2278.40;;;;;;5080936;28;20267;-76
2024/02/24 01:09:56;;;;;;;;;;;359.10;2278.40;;;;;;5089769;28;20006;-76
2024/02/24 01:12:23;;;;;;;;;;;359.10;2278.40;;;;;;5088534;28;19982;-75
2024/02/24 01:14:49;;;;;;;;;;;359.10;2252.80;;;;;;5082965;28;20335;-77
2024/02/24 01:17:15;;;;;;;;;;;359.10;2252.80;;;;;;5091527;28;19955;-79
2024/02/24 01:19:41;;;;;;;;;;;359.10;2252.80;;;;;;5079791;28;19921;-77
2024/02/24 01:22:07;;;;;;;;;;;359.20;2227.20;;;;;;5088491;28;19912;-78
2024/02/24 01:24:33;;;;;;;;;;;359.10;2227.20;;;;;;5075684;28;19920;-77
2024/02/24 01:26:58;;;;;;;;;;;359.20;2227.20;;;;;;5087501;28;20352;-76
2024/02/24 01:29:24;;;;;;;;;;;359.20;2227.20;;;;;;5076033;28;20360;-80
2024/02/24 01:31:50;;;;;;;;;;;359.20;2227.20;;;;;;5095412;28;19951;-76
2024/02/24 01:34:16;;;;;;;;;;;359.20;2252.80;;;;;;5086218;28;20327;-77
2024/02/24 01:36:42;;;;;;;;;;;359.20;2227.20;;;;;;5087197;28;19997;-76
2024/02/24 01:39:08;;;;;;;;;;;359.20;2252.80;;;;;;5104015;28;19951;-76
2024/02/24 01:41:34;;;;;;;;;;;359.30;2227.20;;;;;;5095064;28;19908;-76
2024/02/24 01:44:00;;;;;;;;;;;359.30;2252.80;;;;;;5111164;28;19973;-76
2024/02/24 01:46:25;;;;;;;;;;;359.30;2227.20;;;;;;5091070;28;19919;-76
2024/02/24 01:48:51;;;;;;;;;;;359.30;2227.20;;;;;;5074995;28;19991;-76
2024/02/24 01:51:17;;;;;;;;;;;359.30;2227.20;;;;;;5075200;28;19962;-79
2024/02/24 01:53:43;;;;;;;;;;;359.30;2227.20;;;;;;5075167;28;19915;-76
2024/02/24 01:56:09;;;;;;;;;;;359.30;2227.20;;;;;;5074454;28;19920;-76
2024/02/24 01:58:39;;;;;;;;;;;359.30;2227.20;;;;;;5074948;28;20011;-76
2024/02/24 02:01:07;;;;;;;;;;;359.30;2227.20;;;;;;5075091;28;19909;-76
2024/02/24 02:03:33;;;;;;;;;;;359.30;2252.80;;;;;;5074871;28;19909;-77
2024/02/24 02:05:59;;;;;;;;;;;359.30;2227.20;;;;;;5056889;28;19915;-76
2024/02/24 02:08:25;;;;;;;;;;;359.30;2227.20;;;;;;5074680;28;19912;-77
2024/02/24 02:10:52;;;;;;;;;;;359.20;2252.80;;;;;;5074750;28;19916;-76
2024/02/24 02:13:18;;;;;;;;;;;359.20;2252.80;;;;;;5074671;28;19908;-76
2024/02/24 02:15:44;;;;;;;;;;;359.20;2227.20;;;;;;5074718;28;19908;-76
2024/02/24 02:18:10;;;;;;;;;;;359.20;2252.80;;;;;;5074633;28;19943;-76
2024/02/24 02:20:36;;;;;;;;;;;359.30;2227.20;;;;;;5074439;28;20020;-78
2024/02/24 02:23:02;;;;;;;;;;;359.20;2252.80;;;;;;5074521;28;19909;-77
2024/02/24 02:25:27;;;;;;;;;;;359.20;2227.20;;;;;;5074316;28;19943;-77
2024/02/24 02:27:55;;;;;;;;;;;359.20;2227.20;;;;;;5074547;28;19948;-76
2024/02/24 02:30:21;;;;;;;;;;;359.20;2227.20;;;;;;5074514;28;20332;-77
2024/02/24 02:32:46;;;;;;;;;;;359.20;2227.20;;;;;;5074276;28;19959;-78
2024/02/24 02:35:12;;;;;;;;;;;359.20;2252.80;;;;;;5089830;28;19908;-76
2024/02/24 02:37:38;;;;;;;;;;;359.20;2252.80;;;;;;5089774;28;19977;-77
2024/02/24 02:40:03;;;;;;;;;;;359.10;2278.40;;;;;;5089637;28;19908;-76
2024/02/24 02:42:29;;;;;;;;;;;359.10;2278.40;;;;;;5074154;28;19908;-81
2024/02/24 02:44:54;;;;;;;;;;;359.10;2278.40;;;;;;5074143;28;19926;-78
2024/02/24 02:47:20;;;;;;;;;;;359.10;2304.00;;;;;;5074070;28;19908;-77
2024/02/24 02:49:46;;;;;;;;;;;359.10;2304.00;;;;;;5074309;28;19908;-77
2024/02/24 02:52:11;;;;;;;;;;;359.00;2304.00;;;;;;5074071;28;19955;-76
2024/02/24 02:54:37;;;;;;;;;;;359.10;2304.00;;;;;;5073988;28;20003;-80
2024/02/24 02:57:03;;;;;;;;;;;359.00;2329.60;;;;;;5073577;28;19920;-77
2024/02/24 02:59:28;;;;;;;;;;;359.00;2329.60;;;;;;5073923;28;19921;-77
2024/02/24 03:01:58;;;;;;;;;;;359.00;2329.60;;;;;;5073931;28;19908;-76
2024/02/24 03:04:24;;;;;;;;;;;359.00;2329.60;;;;;;5055955;28;19909;-76
2024/02/24 03:06:50;;;;;;;;;;;359.10;2329.60;;;;;;5089318;28;20434;-76
2024/02/24 03:09:15;;;;;;;;;;;359.00;2329.60;;;;;;5072513;28;19913;-78
2024/02/24 03:11:41;;;;;;;;;;;359.00;2329.60;;;;;;5073816;28;19913;-76
2024/02/24 03:14:06;;;;;;;;;;;359.00;2329.60;;;;;;5073685;28;20329;-77
2024/02/24 03:16:32;;;;;;;;;;;359.00;2329.60;;;;;;5073789;28;20329;-76
2024/02/24 03:18:58;;;;;;;;;;;359.00;2329.60;;;;;;5073832;28;20395;-77
2024/02/24 03:21:33;;;;;;;;;;;359.00;2329.60;;;;;;5073224;28;19909;-76
2024/02/24 03:23:59;;;;;;;;;;;359.00;2329.60;;;;;;5073676;28;19951;-77
2024/02/24 03:26:24;;;;;;;;;;;359.20;2329.60;;;;;;5055732;28;19943;-76
2024/02/24 03:28:50;;;;;;;;;;;359.00;2329.60;;;;;;5073550;28;19952;-75
2024/02/24 03:31:16;;;;;;;;;;;359.00;2329.60;;;;;;5073709;28;19958;-78
2024/02/24 03:33:41;;;;;;;;;;;358.90;2329.60;;;;;;5073881;28;20276;-77
2024/02/24 03:36:11;;;;;;;;;;;358.90;2329.60;;;;;;5077682;28;19912;-76
2024/02/24 03:38:37;;;;;;;;;;;358.90;2329.60;;;;;;5093905;28;20004;-76
2024/02/24 03:41:02;;;;;;;;;;;358.90;2329.60;;;;;;5093628;28;19944;-76
2024/02/24 03:43:28;;;;;;;;;;;358.90;2329.60;;;;;;5093819;28;19909;-78
2024/02/24 03:45:53;;;;;;;;;;;358.90;2329.60;;;;;;5093695;28;19924;-76
2024/02/24 03:48:19;;;;;;;;;;;358.90;2329.60;;;;;;5093739;28;19912;-76
2024/02/24 03:50:45;;;;;;;;;;;358.90;2329.60;;;;;;5075432;28;19919;-77
2024/02/24 03:53:10;;;;;;;;;;;358.90;2329.60;;;;;;5093443;28;19908;-75
2024/02/24 03:55:36;;;;;;;;;;;358.90;2329.60;;;;;;5093246;28;19923;-76
2024/02/24 03:58:01;;;;;;;;;;;358.90;2329.60;;;;;;5093427;28;19920;-76
2024/02/24 04:00:34;;;;;;;;;;;358.90;2329.60;;;;;;5093416;28;19915;-76
2024/02/24 04:03:00;;;;;;;;;;;359.00;2329.60;;;;;;5093434;28;19916;-76
2024/02/24 04:05:26;;;;;;;;;;;359.00;2329.60;;;;;;5093508;28;19912;-78
2024/02/24 04:07:51;;;;;;;;;;;359.00;2329.60;;;;;;5093551;28;19960;-76
2024/02/24 04:10:17;;;;;;;;;;;359.00;2329.60;;;;;;5093452;28;19908;-77
2024/02/24 04:12:42;;;;;;;;;;;359.00;2329.60;;;;;;5093142;28;20381;-76
2024/02/24 04:15:08;;;;;;;;;;;359.00;2329.60;;;;;;5075358;28;19914;-77
2024/02/24 04:17:34;;;;;;;;;;;359.00;2329.60;;;;;;5075128;28;19993;-76
2024/02/24 04:19:59;;;;;;;;;;;359.00;2329.60;;;;;;5075250;28;20363;-78
2024/02/24 04:22:25;;;;;;;;;;;359.00;2329.60;;;;;;5075124;28;19923;-79
2024/02/24 04:24:51;;;;;;;;;;;359.00;2329.60;;;;;;5093325;28;19908;-77
2024/02/24 04:27:17;;;;;;;;;;;359.00;2329.60;;;;;;5074974;28;19919;-77
2024/02/24 04:29:43;;;;;;;;;;;359.00;2329.60;;;;;;5093198;28;19908;-76
2024/02/24 04:32:08;;;;;;;;;;;359.00;2329.60;;;;;;5093130;28;19908;-78
2024/02/24 04:34:36;;;;;;;;;;;359.00;2329.60;;;;;;5095938;28;19912;-78
2024/02/24 04:37:02;;;;;;;;;;;359.00;2329.60;;;;;;5096723;28;19908;-80
2024/02/24 04:39:27;;;;;;;;;;;359.10;2329.60;;;;;;5096606;28;19924;-80
2024/02/24 04:41:53;;;;;;;;;;;359.00;2329.60;;;;;;5096709;28;19912;-77
2024/02/24 04:44:18;;;;;;;;;;;359.00;2329.60;;;;;;5078596;28;19908;-76
2024/02/24 04:46:44;;;;;;;;;;;359.10;2329.60;;;;;;5096612;28;20291;-76
2024/02/24 04:49:10;;;;;;;;;;;359.10;2329.60;;;;;;5096338;28;19912;-76
2024/02/24 04:51:35;;;;;;;;;;;359.20;2329.60;;;;;;5096407;28;19919;-77
2024/02/24 04:54:01;;;;;;;;;;;359.20;2329.60;;;;;;5096242;28;20592;-76
2024/02/24 04:56:27;;;;;;;;;;;359.20;2329.60;;;;;;5096044;28;20023;-76
2024/02/24 04:58:53;;;;;;;;;;;359.20;2329.60;;;;;;5078204;28;20098;-76
2024/02/24 05:01:18;;;;;;;;;;;359.20;2329.60;;;;;;5077628;28;20286;-75
2024/02/24 05:03:44;;;;;;;;;;;359.30;2329.60;;;;;;5096196;28;19939;-76
2024/02/24 05:06:10;;;;;;;;;;;359.30;2329.60;;;;;;5077483;28;19912;-80
2024/02/24 05:08:35;;;;;;;;;;;359.30;2329.60;;;;;;5077929;28;19966;-76
2024/02/24 05:11:01;;;;;;;;;;;384.00;2329.60;;;;;;5096039;28;19908;-77
2024/02/24 05:13:27;;;;;;;;;;;384.00;2329.60;;;;;;5095824;28;19961;-76
2024/02/24 05:15:53;;;;;;;;;;;384.00;2329.60;;;;;;5077772;28;19999;-76
2024/02/24 05:18:18;;;;;;;;;;;384.00;2329.60;;;;;;5095986;28;19916;-77
2024/02/24 05:20:44;;;;;;;;;;;384.00;2329.60;;;;;;5095750;28;19934;-82
2024/02/24 05:23:09;;;;;;;;;;;384.00;2329.60;;;;;;5095715;28;19962;-75
2024/02/24 05:25:36;;;;;;;;;;;384.00;2329.60;;;;;;5095619;28;19912;-81
2024/02/24 05:28:01;;;;;;;;;;;384.00;2329.60;;;;;;5077456;28;19988;-77
2024/02/24 05:30:27;;;;;;;;;;;384.00;2329.60;;;;;;5095593;28;20367;-76
2024/02/24 05:32:52;;;;;;;;;;;384.00;2329.60;;;;;;5095752;28;20391;-76
2024/02/24 05:35:18;;;;;;;;;;;384.00;2329.60;;;;;;5095455;28;20318;-77
2024/02/24 05:37:44;;;;;;;;;;;384.00;2329.60;;;;;;5095648;28;19995;-77
2024/02/24 05:40:10;;;;;;;;;;;384.00;2329.60;;;;;;5095411;28;20363;-76
2024/02/24 05:42:36;;;;;;;;;;;384.00;2329.60;;;;;;5087482;28;19916;-75
2024/02/24 05:45:02;;;;;;;;;;;384.00;2329.60;;;;;;5083358;28;19969;-78
2024/02/24 05:47:28;;;;;;;;;;;384.00;2329.60;;;;;;5068334;28;20364;-76
2024/02/24 05:49:53;;;;;;;;;;;384.00;2329.60;;;;;;5079884;28;19908;-77
2024/02/24 05:52:19;;;;;;;;;;;384.00;2329.60;;;;;;5100440;28;20380;-77
2024/02/24 05:54:45;;;;;;;;;;;384.00;2329.60;;;;;;5068198;28;19909;-76
2024/02/24 05:57:10;;;;;;;;;;;384.00;2329.60;;;;;;5094260;28;19920;-75
2024/02/24 05:59:36;;;;;;;;;;;384.00;2329.60;;;;;;5066226;28;19955;-76
2024/02/24 06:02:02;;;;;;;;;;;384.00;2329.60;;;;;;5104953;28;19909;-77
2024/02/24 06:04:27;;;;;;;;;;;384.00;2329.60;;;;;;5076133;28;19908;-76
2024/02/24 06:06:53;;;;;;;;;;;359.30;2329.60;;;;;;5084270;28;19908;-76
2024/02/24 06:09:18;;;;;;;;;;;359.30;2329.60;;;;;;5072777;28;20042;-77
2024/02/24 06:11:45;;;;;;;;;;;359.30;2329.60;;;;;;5103522;28;19909;-77
2024/02/24 06:14:11;;;;;;;;;;;359.30;2329.60;;;;;;5089774;28;20338;-76
2024/02/24 06:16:36;;;;;;;;;;;359.20;2329.60;;;;;;5101907;28;19995;-76
2024/02/24 06:19:02;;;;;;;;;;;359.20;2329.60;;;;;;5081937;28;19916;-79
2024/02/24 06:21:29;;;;;;;;;;;359.30;2329.60;;;;;;5088649;28;19939;-78
2024/02/24 06:23:55;;;;;;;;;;;359.20;2329.60;;;;;;5061726;28;19915;-76
2024/02/24 06:26:20;;;;;;;;;;;359.20;2329.60;;;;;;5077524;28;20006;-78
2024/02/24 06:28:46;;;;;;;;;;;359.20;2329.60;;;;;;5092359;28;20279;-76
2024/02/24 06:31:13;;;;;;;;;;;359.20;2329.60;;;;;;5071753;28;19962;-76
2024/02/24 06:33:39;;;;;;;;;;;359.20;2329.60;;;;;;5081707;28;20348;-76
2024/02/24 06:36:05;;;;;;;;;;;359.20;2329.60;;;;;;5087132;28;19908;-76
2024/02/24 06:38:31;;;;;;;;;;;359.10;2329.60;;;;;;5087984;28;20051;-76
2024/02/24 06:40:56;;;;;;;;;;;359.20;2329.60;;;;;;5087455;28;19915;-76
2024/02/24 06:43:22;;;;;;;;;;;359.20;2329.60;;;;;;5086307;28;20380;-76
2024/02/24 06:45:47;;;;;;;;;;;359.20;2329.60;;;;;;5092096;28;19909;-77
2024/02/24 06:48:13;;;;;;;;;;;359.20;2329.60;;;;;;5103881;28;19982;-77
2024/02/24 06:50:38;;;;;;;;;;;359.20;2329.60;;;;;;5071695;28;19958;-76
2024/02/24 06:53:04;;;;;;;;;;;359.30;2329.60;;;;;;5099899;28;20279;-76
2024/02/24 06:55:30;;;;;;;;;;;359.30;2329.60;;;;;;5080455;28;20517;-77
2024/02/24 06:57:55;;;;;;;;;;;359.30;2329.60;;;;;;5095511;28;19935;-78
2024/02/24 07:00:21;;;;;;;;;;;384.00;2329.60;;;;;;5075135;28;20323;-76
2024/02/24 07:02:47;;;;;;;;;;;384.00;2329.60;;;;;;5087563;28;20371;-75
2024/02/24 07:05:13;;;;;;;;;;;384.00;2329.60;;;;;;5085380;28;19909;-75
2024/02/24 07:07:38;;;;;;;;;;;384.00;2329.60;;;;;;5104871;28;19912;-77
2024/02/24 07:10:04;;;;;;;;;;;384.00;2329.60;;;;;;5087449;28;19912;-77
2024/02/24 07:12:31;;;;;;;;;;;384.00;2329.60;;;;;;5073733;28;20341;-77
2024/02/24 07:14:56;;;;;;;;;;;384.10;2329.60;;;;;;5062013;28;19914;-77
2024/02/24 07:17:22;;;;;;;;;;;384.10;2329.60;;;;;;5099462;28;19912;-77
2024/02/24 07:19:49;;;;;;;;;;;384.10;2329.60;;;;;;5080164;28;19916;-74
2024/02/24 07:22:15;;;;;;;;;;;384.20;2329.60;;;;;;5077851;28;19909;-77
2024/02/24 07:24:40;;;;;;;;;;;384.20;2329.60;;;;;;5085972;28;19912;-76
2024/02/24 07:27:06;;;;;;;;;;;384.30;2329.60;;;;;;5078094;28;20415;-78
2024/02/24 07:29:31;;;;;;;;;;;384.30;2329.60;;;;;;5098191;28;19973;-76
2024/02/24 07:31:57;;;;;;;;;;;384.30;2329.60;;;;;;5086032;28;20431;-76
2024/02/24 07:34:23;;;;;;;;;;;384.40;2329.60;;;;;;5078626;28;20371;-76
2024/02/24 07:36:48;;;;;;;;;;;384.40;2329.60;;;;;;5073421;28;19912;-76
2024/02/24 07:39:14;;;;;;;;;;;384.40;2329.60;;;;;;5103642;28;19923;-75
2024/02/24 07:41:40;;;;;;;;;;;384.40;2329.60;;;;;;5072743;28;19959;-76
2024/02/24 07:44:07;;;;;;;;;;;384.40;2329.60;;;;;;5087739;28;19916;-75
2024/02/24 07:46:32;;;;;;;;;;;384.40;2329.60;;;;;;5090588;28;19916;-76
2024/02/24 07:48:59;;;;;;;;;;;384.40;2329.60;;;;;;5086029;28;19908;-78
2024/02/24 07:51:25;;;;;;;;;;;384.30;2329.60;;;;;;5086935;28;20420;-75
2024/02/24 07:53:52;;;;;;;;;;;384.40;2329.60;;;;;;5081900;28;19995;-78
2024/02/24 07:56:17;;;;;;;;;;;384.40;2329.60;;;;;;5085624;28;19920;-76
2024/02/24 07:58:43;;;;;;;;;;;384.40;2329.60;;;;;;5081751;28;20451;-78
2024/02/24 08:01:09;;;;;;;;;;;384.40;2329.60;;;;;;5090180;28;19913;-77
2024/02/24 08:03:34;;;;;;;;;;;384.40;2329.60;;;;;;5078926;28;19995;-76
2024/02/24 08:06:00;;;;;;;;;;;384.40;2329.60;;;;;;5087905;28;19912;-77
2024/02/24 08:08:26;;;;;;;;;;;384.40;2329.60;;;;;;5084109;28;20368;-79
2024/02/24 08:10:51;;;;;;;;;;;384.40;2329.60;;;;;;5083845;28;19909;-78
2024/02/24 08:13:17;;;;;;;;;;;384.40;2329.60;;;;;;5100991;28;20391;-76
2024/02/24 08:15:42;;;;;;;;;;;384.40;2329.60;;;;;;5079446;28;19909;-79
2024/02/24 08:18:08;;;;;;;;;;;384.50;2329.60;;;;;;5103015;28;19923;-78
2024/02/24 08:20:34;;;;;;;;;;;384.50;2329.60;;;;;;5086112;28;19912;-78
2024/02/24 08:22:59;;;;;;;;;;;384.50;2329.60;;;;;;5070203;28;19987;-78
2024/02/24 08:25:25;;;;;;;;;;;384.50;2329.60;;;;;;5093068;28;19913;-77
2024/02/24 08:27:51;;;;;;;;;;;384.50;2329.60;;;;;;5080513;28;19965;-76
2024/02/24 08:30:17;;;;;;;;;;;384.50;2329.60;;;;;;5080452;28;19911;-78
2024/02/24 08:32:43;;;;;;;;;;;384.50;2329.60;;;;;;5067824;28;20400;-79
2024/02/24 08:35:08;;;;;;;;;;;384.50;2329.60;;;;;;5085478;28;19987;-76
2024/02/24 08:37:34;;;;;;;;;;;384.50;2329.60;;;;;;5086555;28;20003;-82
2024/02/24 08:40:00;;;;;;;;;;;384.50;2329.60;;;;;;5079676;28;20367;-76
2024/02/24 08:42:25;;;;;;;;;;;384.50;2329.60;;;;;;5102911;28;19912;-77
2024/02/24 08:44:51;;;;;;;;;;;384.50;2329.60;;;;;;5091406;28;19943;-77
2024/02/24 08:47:16;;;;;;;;;;;384.50;2329.60;;;;;;5088751;28;19969;-77
2024/02/24 08:49:42;;;;;;;;;;;384.50;2329.60;;;;;;5091961;28;20276;-76
2024/02/24 08:52:07;;;;;;;;;;;384.50;2329.60;;;;;;5088797;28;19908;-80
2024/02/24 08:54:33;;;;;;;;;;;384.50;2329.60;;;;;;5088290;28;20318;-77
2024/02/24 08:57:00;;;;;;;;;;;384.50;2329.60;;;;;;5091375;28;19921;-77
2024/02/24 08:59:25;;;;;;;;;;;384.50;2329.60;;;;;;5066962;28;19920;-78
2024/02/24 09:01:52;;;;;;;;;;;384.50;2329.60;;;;;;5088848;28;19909;-79
2024/02/24 09:04:18;;;;;;;;;;;384.50;2329.60;;;;;;5085576;28;20359;-75
2024/02/24 09:06:43;;;;;;;;;;;384.50;2329.60;;;;;;5082711;28;19972;-77
2024/02/24 09:09:11;;;;;;;;;;;384.50;2329.60;;;;;;5087960;28;20003;-76
2024/02/24 09:11:37;;;;;;;;;;;384.40;2329.60;;;;;;5088802;28;20304;-77
2024/02/24 09:14:03;;;;;;;;;;;384.40;2329.60;;;;;;5084127;28;20011;-77
2024/02/24 09:16:28;;;;;;;;;;;384.40;2329.60;;;;;;5088643;28;19927;-76
2024/02/24 09:18:54;;;;;;;;;;;384.40;2329.60;;;;;;5086643;28;20257;-77
2024/02/24 09:21:20;;;;;;;;;;;384.40;2329.60;;;;;;5074482;28;19952;-76
2024/02/24 09:23:45;;;;;;;;;;;384.40;2329.60;;;;;;5083725;28;20006;-75
2024/02/24 09:26:11;;;;;;;;;;;384.40;2329.60;;;;;;5070478;28;19919;-77
2024/02/24 09:28:36;;;;;;;;;;;384.30;2329.60;;;;;;5080289;28;19917;-77
2024/02/24 09:31:02;;;;;;;;;;;384.30;2329.60;;;;;;5081661;28;19909;-75
2024/02/24 09:33:28;;;;;;;;;;;384.30;2329.60;;;;;;5088553;28;20635;-76
2024/02/24 09:35:53;;;;;;;;;;;384.30;2329.60;;;;;;5086191;28;19938;-76
2024/02/24 09:38:19;;;;;;;;;;;384.20;2329.60;;;;;;5090008;28;20010;-75
2024/02/24 09:40:44;;;;;;;;;;;384.20;2329.60;;;;;;5088697;28;19918;-76
2024/02/24 09:43:10;;;;;;;;;;;384.20;2329.60;;;;;;5085007;28;19909;-79
2024/02/24 09:45:41;;;;;;;;;;;384.20;2329.60;;;;;;5085577;28;20291;-82
2024/02/24 09:48:06;;;;;;;;;;;384.20;2329.60;;;;;;5086621;28;19916;-75
2024/02/24 09:50:32;;;;;;;;;;;384.20;2329.60;;;;;;5087097;28;20348;-77
2024/02/24 09:52:58;;;;;;;;;;;384.20;2329.60;;;;;;5078272;28;19909;-78
2024/02/24 09:55:24;;;;;;;;;;;384.20;2329.60;;;;;;5098942;28;19958;-76
2024/02/24 09:57:50;;;;;;;;;;;384.10;2329.60;;;;;;5086778;28;19920;-78
2024/02/24 10:00:16;;;;;;;;;;;384.10;2329.60;;;;;;5067141;28;19916;-78
2024/02/24 10:02:41;;;;;;;;;;;384.10;2329.60;;;;;;5102107;28;19912;-77
2024/02/24 10:05:07;;;;;;;;;;;384.10;2329.60;;;;;;5075620;28;19908;-77
2024/02/24 10:07:34;;;;;;;;;;;384.10;2329.60;;;;;;5107621;28;19912;-75
2024/02/24 10:10:00;;;;;;;;;;;384.00;2329.60;;;;;;5085759;28;19970;-77
2024/02/24 10:12:26;;;;;;;;;;;384.10;2329.60;;;;;;5104208;28;20338;-79
2024/02/24 10:14:53;;;;;;;;;;;384.10;2329.60;;;;;;5064112;28;19930;-75
2024/02/24 10:17:19;;;;;;;;;;;384.10;2329.60;;;;;;5088085;28;19966;-77
2024/02/24 10:19:49;;;;;;;;;;;384.10;2329.60;;;;;;5071632;28;19920;-76
2024/02/24 10:22:16;;;;;;;;;;;384.10;2329.60;;;;;;5068310;28;19912;-76
2024/02/24 10:24:41;;;;;;;;;;;384.10;2329.60;;;;;;5085912;28;19909;-79
2024/02/24 10:27:07;;;;;;;;;;;384.20;2329.60;;;;;;5076906;28;19965;-78
2024/02/24 10:29:32;;;;;;;;;;;384.20;2329.60;;;;;;5067742;28;20302;-78
2024/02/24 10:31:59;;;;;;;;;;;384.20;2329.60;;;;;;5074777;28;20278;-74
2024/02/24 10:34:25;;;;;;;;;;;384.20;2329.60;;;;;;5083415;28;19916;-75
2024/02/24 10:36:51;;;;;;;;;;;384.20;2329.60;;;;;;5069401;28;19915;-75
2024/02/24 10:39:17;;;;;;;;;;;384.30;2329.60;;;;;;5081280;28;19925;-76
2024/02/24 10:41:46;;;;;;;;;;;384.30;2329.60;;;;;;5083830;28;20290;-76
2024/02/24 10:44:12;;;;;;;;;;;384.30;2329.60;;;;;;5080123;28;20374;-79
2024/02/24 10:46:38;;;;;;;;;;;384.30;2329.60;;;;;;5075308;28;19909;-81
2024/02/24 10:49:04;;;;;;;;;;;384.30;2329.60;;;;;;5084292;28;19926;-78
2024/02/24 10:51:30;;;;;;;;;;;384.40;2329.60;;;;;;5087306;28;19908;-78
2024/02/24 10:53:58;;;;;;;;;;;384.30;2329.60;;;;;;5080956;28;19912;-76
2024/02/24 10:56:24;;;;;;;;;;;384.30;2329.60;;;;;;5088793;28;19920;-76
2024/02/24 10:58:50;;;;;;;;;;;384.30;2329.60;;;;;;5060324;28;19928;-75
2024/02/24 11:01:18;;;;;;;;;;;384.30;2329.60;;;;;;5087526;28;21342;-77
2024/02/24 11:03:45;;;;;;;;;;;384.30;2329.60;;;;;;5085689;28;19908;-78
2024/02/24 11:06:11;;;;;;;;;;;384.30;2329.60;;;;;;5087626;28;19912;-76
2024/02/24 11:08:43;;;;;;;;;;;384.30;2329.60;;;;;;5090724;28;19915;-74
2024/02/24 11:11:09;;;;;;;;;;;384.30;2329.60;;;;;;5082477;28;19909;-77
2024/02/24 11:13:35;;;;;;;;;;;384.30;2329.60;;;;;;5074627;28;19912;-77
2024/02/24 11:16:03;;;;;;;;;;;384.30;2329.60;;;;;;5091412;28;19961;-75
2024/02/24 11:18:47;;;;;;;;;;;384.30;2329.60;;;;;;5087783;28;19913;-79
2024/02/24 11:21:16;;;;;;;;;;;384.30;2329.60;;;;;;5099100;28;19908;-76
2024/02/24 11:23:46;;;;;;;;;;;384.20;2329.60;;;;;;5095970;28;19913;-77
2024/02/24 11:26:12;;;;;;;;;;;384.20;2329.60;;;;;;5072289;28;20011;-75
2024/02/24 11:28:38;;;;;;;;;;;384.20;2329.60;;;;;;5087652;28;19973;-76
2024/02/24 11:31:04;;;;;;;;;;;384.20;2329.60;;;;;;5061868;28;19915;-77
2024/02/24 11:33:32;;;;;;;;;;;384.20;2329.60;;;;;;5067923;28;19909;-75
2024/02/24 11:36:00;;;;;;;;;;;384.20;2329.60;;;;;;5089693;28;19908;-75
2024/02/24 11:38:26;;;;;;;;;;;384.10;2329.60;;;;;;5073854;28;20084;-76
2024/02/24 11:40:52;;;;;;;;;;;384.20;2329.60;;;;;;5084070;28;20426;-76
2024/02/24 11:43:18;;;;;;;;;;;384.10;2329.60;;;;;;5076985;28;19954;-75
2024/02/24 11:45:44;;;;;;;;;;;384.10;2329.60;;;;;;5090028;28;20402;-75
2024/02/24 11:48:10;;;;;;;;;;;384.10;2329.60;;;;;;5091997;28;19916;-76
2024/02/24 11:50:36;;;;;;;;;;;384.10;2329.60;;;;;;5092936;28;20415;-77
2024/02/24 11:53:02;;;;;;;;;;;384.10;2329.60;;;;;;5106643;28;19908;-77
2024/02/24 11:55:27;;;;;;;;;;;384.10;2329.60;;;;;;5092211;28;19919;-78
2024/02/24 11:57:53;;;;;;;;;;;384.10;2329.60;;;;;;5103946;28;19990;-78
2024/02/24 12:00:19;;;;;;;;;;;384.20;2329.60;;;;;;5074705;28;19912;-77
2024/02/24 12:02:45;;;;;;;;;;;384.10;2329.60;;;;;;5101613;28;19935;-76
2024/02/24 12:05:17;;;;;;;;;;;384.20;2329.60;;;;;;5090993;28;19908;-75
2024/02/24 12:07:43;;;;;;;;;;;384.20;2329.60;;;;;;5090322;28;19919;-78
2024/02/24 12:10:09;;;;;;;;;;;359.20;2329.60;;;;;;5089495;28;20291;-77
2024/02/24 12:12:35;;;;;;;;;;;384.20;2329.60;;;;;;5086744;28;19916;-76
2024/02/24 12:15:01;;;;;;;;;;;384.90;2329.60;;;;;;5086494;28;19915;-76
2024/02/24 12:17:26;;;;;;;;;;;384.20;2329.60;;;;;;5103483;28;20279;-77
2024/02/24 12:19:53;;;;;;;;;;;384.20;2329.60;;;;;;5086744;28;19924;-79
2024/02/24 12:22:22;;;;;;;;;;;384.20;2329.60;;;;;;5090607;28;20003;-77
2024/02/24 12:24:47;;;;;;;;;;;384.20;2329.60;;;;;;5088114;28;19908;-77
2024/02/24 12:27:13;;;;;;;;;;;384.20;2329.60;;;;;;5077958;28;19915;-78
2024/02/24 12:29:39;;;;;;;;;;;384.20;2329.60;;;;;;5090879;28;19993;-78
2024/02/24 12:32:05;;;;;;;;;;;384.20;2329.60;;;;;;5092924;28;19912;-77
2024/02/24 12:34:32;;;;;;;;;;;384.20;2329.60;;;;;;5074053;28;20007;-76
2024/02/24 12:36:57;;;;;;;;;;;384.20;2329.60;;;;;;5092680;28;19970;-77
2024/02/24 12:39:24;;;;;;;;;;;384.10;2329.60;;;;;;5106168;28;20351;-77
2024/02/24 12:41:52;;;;;;;;;;;384.10;2329.60;;;;;;5072921;28;19949;-76
2024/02/24 12:44:18;;;;;;;;;;;384.10;2329.60;;;;;;5075278;28;20277;-80
2024/02/24 12:46:44;;;;;;;;;;;384.10;2329.60;;;;;;5077678;28;19908;-79
2024/02/24 12:49:10;;;;;;;;;;;384.10;2329.60;;;;;;5090678;28;19935;-81
2024/02/24 12:51:36;;;;;;;;;;;384.10;2329.60;;;;;;5075606;28;20463;-77
2024/02/24 12:54:01;;;;;;;;;;;384.10;2329.60;;;;;;5084655;28;20433;-74
2024/02/24 12:56:27;;;;;;;;;;;384.10;2329.60;;;;;;5090176;28;19920;-78
2024/02/24 12:58:52;;;;;;;;;;;384.20;2329.60;;;;;;5070895;28;19960;-79
2024/02/24 13:01:18;;;;;;;;;;;384.10;2329.60;;;;;;5066887;28;20018;-79
2024/02/24 13:03:44;;;;;;;;;;;384.20;2329.60;;;;;;5063847;28;19913;-78
2024/02/24 13:06:09;;;;;;;;;;;384.20;2329.60;;;;;;5082168;28;19940;-78
2024/02/24 13:08:35;;;;;;;;;;;384.10;2329.60;;;;;;5084653;28;19950;-79
2024/02/24 13:11:01;;;;;;;;;;;384.20;2329.60;;;;;;5084762;28;20317;-82
2024/02/24 13:13:26;;;;;;;;;;;384.20;2329.60;;;;;;5068198;28;19912;-77
2024/02/24 13:15:52;;;;;;;;;;;384.20;2329.60;;;;;;5061571;28;20364;-78
2024/02/24 13:18:18;;;;;;;;;;;384.20;2329.60;;;;;;5083226;28;20027;-78
2024/02/24 13:20:44;;;;;;;;;;;384.20;2329.60;;;;;;5067602;28;19912;-77
2024/02/24 13:23:10;;;;;;;;;;;384.20;2329.60;;;;;;5071405;28;19912;-78
2024/02/24 13:25:35;;;;;;;;;;;384.30;2329.60;;;;;;5055248;28;19919;-78
2024/02/24 13:28:03;;;;;;;;;;;384.30;2329.60;;;;;;5067411;28;20484;-77
2024/02/24 13:30:29;;;;;;;;;;;384.30;2329.60;;;;;;5067298;28;19908;-77
2024/02/24 13:32:55;;;;;;;;;;;384.20;2329.60;;;;;;5087464;28;19908;-77
2024/02/24 13:35:21;;;;;;;;;;;384.20;2329.60;;;;;;5088714;28;19995;-77